Detalii statie AGROSTAR [00001CEF]

Toti senzorii

Date Temperatura solului [C]Precipitatii [mm]Voltaj baterie [mV]HC Air temperature [C]HC Relative humidity [%]Punctul de roua [C]
medieminmaxsumaultimamedieminmaxmediemediemin
2018-06-20 10:00:00 22 21.7 22.3 0 7264 31.86 30.17 33.6 41.49 16.9 16
2018-06-20 11:00:00 22.6 22.3 22.9 0 7264 31.26 29.62 33.13 43.54 17.2 16.1
2018-06-20 12:00:00 23.2 23 23.6 0 7254 32.04 30.83 34.32 40.61 16.7 15
2018-06-20 13:00:00 23.9 23.6 24.2 0 7264 31.43 29.11 33.18 43.64 17.2 14.5
2018-06-20 14:00:00 24.5 24.3 24.7 0 7264 31.22 28.59 33.35 42.43 16.6 15.8
2018-06-20 15:00:00 24.9 24.6 25.2 0 7264 32.53 31.55 33.22 36.55 15.5 13.4
2018-06-20 16:00:00 25.2 25.1 25.4 0 7246 32.19 31.36 33.01 35.34 14.6 13.1
2018-06-20 17:00:00 25.3 25.2 25.5 0 7118 32.32 30.91 33.38 39.68 16.5 15.8
2018-06-20 18:00:00 25.5 25.5 25.7 0 7246 30.32 29.09 31.46 44.65 16.6 15.5
2018-06-20 19:00:00 25.6 25.5 25.8 0 6894 28.04 26.62 29.17 50.99 16.7 15.5
2018-06-20 20:00:00 25.7 25.6 25.8 0 6834 25.26 24.08 26.55 62.77 17.4 16.7
2018-06-20 21:00:00 25.6 25.6 25.8 0 6816 23.34 22.81 23.9 66.72 16.6 16.2
2018-06-20 22:00:00 25.5 25.4 25.7 0 6816 22.34 22 22.69 70.97 16.6 16.4
2018-06-20 23:00:00 25.3 25.2 25.4 0 6806 21.75 21.53 21.95 75.42 17 16.8
2018-06-21 00:00:00 25.1 25 25.3 0 6796 21.02 20.58 21.43 78.92 17 16.8
2018-06-21 01:00:00 24.9 24.9 25 0 6786 20.07 19.72 20.49 83.15 16.9 16.8
2018-06-21 02:00:00 24.7 24.7 25 0 6786 19.34 19.07 19.63 88.13 17.1 17
2018-06-21 03:00:00 24.4 24.3 24.6 0 6776 18.53 18.06 19.05 90.89 16.8 16.6
2018-06-21 04:00:00 24.2 24.1 24.4 0 6766 17.84 17.53 18.11 93.52 16.6 16.5
2018-06-21 05:00:00 24 23.9 24.2 0 6756 17.44 17.29 17.57 94.51 16.4 16.2
2018-06-21 06:00:00 23.7 23.6 24 0 6796 17.62 17.28 18.07 93.8 16.4 16.2
2018-06-21 07:00:00 23.5 23.5 23.7 0 6844 19.09 18.2 20.2 86.16 16.5 16.4
2018-06-21 08:00:00 23.4 23.3 23.6 0 7138 23.14 20.47 26.9 71.5 17.4 16.8
2018-06-21 09:00:00 23.2 23.1 23.3 0 7274 27.88 26.84 29.19 53.39 17.3 16.8
2018-06-21 10:00:00 23.4 23.2 23.7 0 7264 29.43 27.63 31.28 50.03 17.6 16.6
2018-06-21 11:00:00 23.8 23.6 24.2 0 7264 31.07 30 32.01 47.03 18.1 17.3
2018-06-21 12:00:00 24.3 24.1 24.7 0 7264 31.1 27.95 33.38 45.46 17.6 16.5
2018-06-21 13:00:00 24.9 24.6 25.3 0 7254 31.22 29.43 32.86 43.71 17 15.8
2018-06-21 14:00:00 25.4 25.2 25.6 0 7254 30.46 29.6 32.15 46.2 17.3 16.3
2018-06-21 15:00:00 25.7 25.6 26 0 7246 32.73 30.86 35.17 40.17 17.1 15.6
2018-06-21 16:00:00 26 25.9 26.1 0 6904 25.77 21.31 30.85 57.46 16.3 15.1
2018-06-21 17:00:00 26 26 26.1 0.2 6884 19.52 18.87 21.2 83.08 16.3 15.5
2018-06-21 18:00:00 25.9 25.7 26.1 0 6894 19.23 19.06 19.43 87.1 16.9 16.5
2018-06-21 19:00:00 25.7 25.5 26 0 6884 19.35 19.26 19.44 88.29 17.2 17
2018-06-21 20:00:00 25.4 25.3 25.6 0 6816 18.92 18.18 19.3 89.81 17 16.8
2018-06-21 21:00:00 25.2 25.1 25.4 0 6806 17.65 17.27 18.11 95.37 16.7 16.4
2018-06-21 22:00:00 24.9 24.8 25.2 0 6806 16.89 16.35 17.5 99.08 16.6 16.1
2018-06-21 23:00:00 24.6 24.5 24.9 0 6796 16.07 15.75 16.43 100 16 15.7
2018-06-22 00:00:00 24.4 24.3 24.6 0 6786 15.71 15.38 16.04 100 15.6 15.3
2018-06-22 01:00:00 24.1 24 24.2 0 6766 15.3 15.03 15.63 100 15.2 15
2018-06-22 02:00:00 23.8 23.6 24 0 6766 14.85 14.5 15.12 100 14.8 14.5
2018-06-22 03:00:00 23.5 23.3 23.7 0 6766 14.72 14.38 14.97 100 14.6 14.3
2018-06-22 04:00:00 23.2 23.1 23.4 0 6756 15.01 14.92 15.07 98.82 14.7 14.5
2018-06-22 05:00:00 22.9 22.8 23.2 0 6756 14.62 14.32 15.04 97.68 14.1 13.9
2018-06-22 06:00:00 22.7 22.6 22.9 0 6786 14.59 14.26 15.13 98.94 14.2 13.9
2018-06-22 07:00:00 22.5 22.4 22.7 0 6854 16.5 15.42 16.97 90.52 14.8 14.6
2018-06-22 08:00:00 22.4 22.3 22.5 0 7098 19.69 16.88 22.36 78.14 15.4 14.9
2018-06-22 09:00:00 22.2 22.1 22.4 0 7176 22.76 20.25 25.65 63.51 15.1 14